Time;durP1;ratioP1;P1;durP2;ratioP2;P2;SDS_P1;SDS_P2;PMS_P1;PMS_P2;Temp;Humidity;BMP_temperature;BMP_pressure;BME280_temperature;BME280_humidity;BME280_pressure;Samples;Min_cycle;Max_cycle;Signal;HPM_P1;HPM_P2
2023/10/20 00:01:04;;;;;;;139.68;61.20;;;;;;;;;;6242239;28;20045;-61
2023/10/20 00:04:07;;;;;;;133.82;61.28;;;;;;;;;;6242810;28;20064;-60
2023/10/20 00:07:07;;;;;;;136.52;61.08;;;;;;;;;;6241611;28;20496;-59
2023/10/20 00:10:11;;;;;;;127.30;55.97;;;;;;;;;;6239561;28;20114;-60
2023/10/20 00:13:12;;;;;;;130.90;58.17;;;;;;;;;;6241645;28;20052;-61
2023/10/20 00:16:12;;;;;;;125.07;56.65;;;;;;;;;;6241896;28;20042;-60
2023/10/20 00:19:14;;;;;;;119.25;54.72;;;;;;;;;;6244557;28;20130;-60
2023/10/20 00:22:15;;;;;;;124.60;57.10;;;;;;;;;;6246762;28;20049;-61
2023/10/20 00:25:17;;;;;;;119.10;55.45;;;;;;;;;;6246569;28;20056;-60
2023/10/20 00:28:17;;;;;;;121.03;54.13;;;;;;;;;;6246256;28;20449;-61
2023/10/20 00:31:18;;;;;;;115.95;53.97;;;;;;;;;;6246573;28;20108;-61
2023/10/20 00:34:18;;;;;;;117.80;53.05;;;;;;;;;;6245992;28;20049;-60
2023/10/20 00:37:20;;;;;;;125.22;53.15;;;;;;;;;;6258236;28;20056;-61
2023/10/20 00:40:20;;;;;;;116.87;51.07;;;;;;;;;;6260420;28;20131;-61
2023/10/20 00:43:22;;;;;;;110.85;50.50;;;;;;;;;;6247384;28;20556;-61
2023/10/20 00:46:23;;;;;;;115.43;53.08;;;;;;;;;;6244165;28;20531;-59
2023/10/20 00:49:24;;;;;;;114.22;50.63;;;;;;;;;;6245155;28;20033;-60
2023/10/20 00:52:25;;;;;;;121.10;53.95;;;;;;;;;;6244908;28;20049;-60
2023/10/20 00:55:26;;;;;;;109.53;49.50;;;;;;;;;;6245865;28;20045;-60
2023/10/20 00:58:27;;;;;;;111.13;52.33;;;;;;;;;;6245063;28;20439;-60
2023/10/20 01:01:28;;;;;;;108.00;50.17;;;;;;;;;;6246184;28;20049;-60
2023/10/20 01:04:28;;;;;;;107.25;49.20;;;;;;;;;;6246547;28;20404;-60
2023/10/20 01:07:29;;;;;;;112.65;51.47;;;;;;;;;;6244377;28;20064;-60
2023/10/20 01:10:30;;;;;;;128.48;56.95;;;;;;;;;;6245467;28;20073;-60
2023/10/20 01:13:30;;;;;;;113.22;51.50;;;;;;;;;;6245636;28;20095;-60
2023/10/20 01:16:31;;;;;;;110.57;49.08;;;;;;;;;;6244775;28;20049;-58
2023/10/20 01:19:32;;;;;;;111.03;47.42;;;;;;;;;;6245311;28;20049;-59
2023/10/20 01:22:33;;;;;;;108.72;48.45;;;;;;;;;;6245240;28;20496;-60
2023/10/20 01:25:34;;;;;;;114.00;48.87;;;;;;;;;;6246044;28;20065;-60
2023/10/20 01:28:34;;;;;;;108.22;49.15;;;;;;;;;;6243232;28;20048;-61
2023/10/20 01:31:35;;;;;;;118.10;51.15;;;;;;;;;;6244239;28;20052;-61
2023/10/20 01:34:36;;;;;;;107.28;48.65;;;;;;;;;;6244243;28;20049;-61
2023/10/20 01:37:36;;;;;;;109.55;48.65;;;;;;;;;;6258737;28;20049;-59
2023/10/20 01:40:37;;;;;;;113.20;49.58;;;;;;;;;;6254028;28;20045;-61
2023/10/20 01:43:37;;;;;;;117.55;51.83;;;;;;;;;;6257320;28;20077;-60
2023/10/20 01:46:38;;;;;;;120.65;50.80;;;;;;;;;;6244964;28;20080;-61
2023/10/20 01:49:39;;;;;;;115.35;49.95;;;;;;;;;;6244955;28;20514;-60
2023/10/20 01:52:39;;;;;;;117.85;52.00;;;;;;;;;;6243889;28;20041;-60
2023/10/20 01:55:40;;;;;;;111.43;46.35;;;;;;;;;;6244788;28;20094;-61
2023/10/20 01:58:41;;;;;;;114.80;47.97;;;;;;;;;;6242896;28;20046;-60
2023/10/20 02:01:42;;;;;;;106.00;47.38;;;;;;;;;;6243975;28;20048;-61
2023/10/20 02:04:42;;;;;;;113.47;47.75;;;;;;;;;;6244996;28;20053;-60
2023/10/20 02:07:43;;;;;;;113.00;47.20;;;;;;;;;;6242890;28;20665;-61
2023/10/20 02:10:44;;;;;;;106.80;46.65;;;;;;;;;;6243105;28;20171;-61
2023/10/20 02:13:45;;;;;;;108.93;48.08;;;;;;;;;;6243793;28;20052;-61
2023/10/20 02:16:45;;;;;;;106.30;46.95;;;;;;;;;;6245177;28;20038;-60
2023/10/20 02:19:46;;;;;;;117.95;49.10;;;;;;;;;;6243837;28;20045;-61
2023/10/20 02:22:50;;;;;;;108.95;46.65;;;;;;;;;;6244459;28;20059;-62
2023/10/20 02:26:07;;;;;;;110.68;46.55;;;;;;;;;;6244431;28;20776;-59
2023/10/20 02:29:08;;;;;;;107.50;48.10;;;;;;;;;;6243262;28;20563;-61
2023/10/20 02:32:08;;;;;;;103.63;44.65;;;;;;;;;;6243607;28;20049;-60
2023/10/20 02:35:09;;;;;;;106.72;48.47;;;;;;;;;;6244099;28;20103;-60
2023/10/20 02:38:10;;;;;;;109.88;49.70;;;;;;;;;;6257989;28;20048;-59
2023/10/20 02:41:11;;;;;;;127.72;61.72;;;;;;;;;;6243585;28;20349;-60
2023/10/20 02:44:13;;;;;;;135.00;59.97;;;;;;;;;;6243108;28;20049;-60
2023/10/20 02:47:14;;;;;;;118.45;53.70;;;;;;;;;;6244145;28;20052;-59
2023/10/20 02:50:15;;;;;;;117.80;48.78;;;;;;;;;;6241682;28;20045;-60
2023/10/20 02:53:16;;;;;;;110.28;47.42;;;;;;;;;;6242827;28;20049;-60
2023/10/20 02:56:18;;;;;;;120.38;50.50;;;;;;;;;;6243971;28;20053;-60
2023/10/20 02:59:19;;;;;;;115.88;48.85;;;;;;;;;;6243175;28;20067;-59
2023/10/20 03:02:20;;;;;;;112.00;48.03;;;;;;;;;;6242852;28;20069;-58
2023/10/20 03:05:20;;;;;;;113.43;53.33;;;;;;;;;;6244007;28;20091;-56
2023/10/20 03:08:21;;;;;;;121.00;52.42;;;;;;;;;;6243318;28;20057;-60
2023/10/20 03:11:22;;;;;;;116.43;54.42;;;;;;;;;;6242740;28;20412;-61
2023/10/20 03:14:22;;;;;;;120.05;54.13;;;;;;;;;;6243070;28;20077;-60
2023/10/20 03:17:23;;;;;;;127.93;55.78;;;;;;;;;;6242735;28;20644;-60
2023/10/20 03:20:24;;;;;;;121.65;56.38;;;;;;;;;;6243415;28;20050;-60
2023/10/20 03:23:25;;;;;;;122.97;51.72;;;;;;;;;;6243802;28;20049;-61
2023/10/20 03:26:26;;;;;;;106.38;49.00;;;;;;;;;;6243690;28;20069;-60
2023/10/20 03:29:26;;;;;;;114.78;49.47;;;;;;;;;;6241635;28;20606;-61
2023/10/20 03:32:27;;;;;;;117.63;49.58;;;;;;;;;;6243002;28;20049;-61
2023/10/20 03:35:28;;;;;;;138.43;59.78;;;;;;;;;;6246990;28;20484;-60
2023/10/20 03:38:29;;;;;;;121.95;53.80;;;;;;;;;;6258000;28;20057;-59
2023/10/20 03:41:29;;;;;;;118.28;52.22;;;;;;;;;;6240102;28;20049;-61
2023/10/20 03:44:30;;;;;;;107.95;48.97;;;;;;;;;;6242822;28;20168;-59
2023/10/20 03:47:34;;;;;;;111.45;48.55;;;;;;;;;;6242763;28;20045;-60
2023/10/20 03:50:38;;;;;;;107.18;48.85;;;;;;;;;;6241182;28;20049;-61
2023/10/20 03:53:52;;;;;;;125.78;53.95;;;;;;;;;;6243690;28;20057;-61
2023/10/20 03:56:56;;;;;;;114.95;49.28;;;;;;;;;;6247491;28;20484;-60
2023/10/20 03:59:56;;;;;;;109.60;48.20;;;;;;;;;;6246773;28;20045;-61
2023/10/20 04:02:57;;;;;;;111.93;48.63;;;;;;;;;;6246274;28;20053;-59
2023/10/20 04:05:58;;;;;;;111.13;47.65;;;;;;;;;;6245733;28;20060;-61
2023/10/20 04:09:01;;;;;;;108.50;47.43;;;;;;;;;;6247115;28;20086;-60
2023/10/20 04:12:01;;;;;;;120.82;51.78;;;;;;;;;;6256950;28;20684;-61
2023/10/20 04:15:02;;;;;;;169.52;63.33;;;;;;;;;;6260682;28;20045;-60
2023/10/20 04:18:04;;;;;;;198.52;73.15;;;;;;;;;;6246584;28;20556;-61
2023/10/20 04:21:05;;;;;;;213.90;77.65;;;;;;;;;;6246212;28;20091;-61
2023/10/20 04:24:07;;;;;;;172.05;65.70;;;;;;;;;;6247446;28;20396;-61
2023/10/20 04:27:21;;;;;;;168.20;63.40;;;;;;;;;;6251961;28;20052;-61
2023/10/20 04:47:47;;;;;;;129.60;55.97;;;;;;;;;;6227583;28;20060;-61
2023/10/20 04:54:07;;;;;;;243.45;75.18;;;;;;;;;;6249252;28;20049;-60
2023/10/20 05:03:34;;;;;;;167.48;59.45;;;;;;;;;;6243905;28;20118;-61
2023/10/20 05:06:43;;;;;;;162.70;65.22;;;;;;;;;;6248066;28;20435;-61
2023/10/20 05:09:44;;;;;;;172.60;66.90;;;;;;;;;;6247182;28;20041;-60
2023/10/20 05:12:46;;;;;;;195.90;79.10;;;;;;;;;;6249355;28;20389;-60
2023/10/20 05:15:47;;;;;;;183.75;73.20;;;;;;;;;;6248090;28;20306;-60
2023/10/20 05:18:48;;;;;;;169.43;67.17;;;;;;;;;;6251637;28;20514;-61
2023/10/20 05:21:49;;;;;;;144.65;63.45;;;;;;;;;;6250764;28;20294;-62
2023/10/20 05:24:51;;;;;;;149.50;65.55;;;;;;;;;;6246218;28;20520;-62
2023/10/20 05:27:51;;;;;;;146.60;64.38;;;;;;;;;;6268113;28;20049;-62
2023/10/20 05:30:53;;;;;;;163.32;76.15;;;;;;;;;;6267780;28;20709;-61
2023/10/20 05:33:54;;;;;;;133.48;58.15;;;;;;;;;;6266644;28;20500;-62
2023/10/20 05:36:54;;;;;;;129.20;56.08;;;;;;;;;;6267427;28;20067;-61
2023/10/20 05:39:55;;;;;;;139.45;62.25;;;;;;;;;;6261941;28;20087;-62
2023/10/20 05:42:55;;;;;;;132.70;61.53;;;;;;;;;;6266693;28;20076;-62
2023/10/20 05:45:56;;;;;;;124.00;57.10;;;;;;;;;;6267628;28;20435;-61
2023/10/20 05:48:57;;;;;;;127.97;56.60;;;;;;;;;;6268143;28;20080;-62
2023/10/20 05:51:57;;;;;;;120.10;56.75;;;;;;;;;;6267581;28;20099;-61
2023/10/20 05:54:59;;;;;;;145.65;64.30;;;;;;;;;;6265624;28;20049;-59
2023/10/20 05:58:00;;;;;;;127.47;53.92;;;;;;;;;;6245610;28;20128;-60
2023/10/20 06:01:05;;;;;;;136.02;59.95;;;;;;;;;;6240196;28;20045;-60
2023/10/20 06:04:08;;;;;;;135.65;62.50;;;;;;;;;;6243710;28;20041;-60
2023/10/20 06:07:08;;;;;;;125.38;54.38;;;;;;;;;;6247169;28;20047;-61
2023/10/20 06:10:13;;;;;;;111.35;47.72;;;;;;;;;;6244035;28;20415;-61
2023/10/20 06:13:15;;;;;;;112.55;47.67;;;;;;;;;;6241167;28;20041;-60
2023/10/20 06:16:16;;;;;;;113.38;50.65;;;;;;;;;;6241850;28;20475;-60
2023/10/20 06:19:16;;;;;;;108.32;49.22;;;;;;;;;;6256103;28;20558;-61
2023/10/20 06:22:17;;;;;;;103.05;46.47;;;;;;;;;;6265816;28;20049;-55
2023/10/20 06:25:17;;;;;;;103.13;47.58;;;;;;;;;;6265739;28;20055;-62
2023/10/20 06:28:18;;;;;;;102.57;49.45;;;;;;;;;;6249117;28;20041;-60
2023/10/20 06:31:41;;;;;;;101.93;48.22;;;;;;;;;;6265794;28;20053;-57
2023/10/20 06:34:42;;;;;;;105.55;47.83;;;;;;;;;;6266497;28;20045;-66
2023/10/20 06:40:52;;;;;;;99.43;46.65;;;;;;;;;;6267118;28;20051;-64
2023/10/20 06:43:53;;;;;;;108.80;50.80;;;;;;;;;;6266342;28;20045;-63
2023/10/20 06:46:53;;;;;;;111.78;48.92;;;;;;;;;;6266923;28;20048;-63
2023/10/20 06:49:54;;;;;;;106.82;49.15;;;;;;;;;;6267200;28;20045;-64
2023/10/20 06:52:55;;;;;;;116.22;50.85;;;;;;;;;;6246593;28;20480;-64
2023/10/20 06:55:56;;;;;;;109.10;48.22;;;;;;;;;;6265933;28;20059;-63
2023/10/20 06:58:56;;;;;;;101.45;44.65;;;;;;;;;;6266545;28;20079;-63
2023/10/20 07:02:00;;;;;;;96.43;43.72;;;;;;;;;;6265729;28;20148;-63
2023/10/20 07:05:00;;;;;;;98.10;42.53;;;;;;;;;;6265630;28;20187;-63
2023/10/20 07:08:01;;;;;;;95.35;42.95;;;;;;;;;;6265014;28;20052;-63
2023/10/20 07:11:03;;;;;;;99.75;44.88;;;;;;;;;;6266519;28;20067;-63
2023/10/20 07:14:07;;;;;;;100.22;44.35;;;;;;;;;;6265360;28;20094;-63
2023/10/20 07:17:08;;;;;;;90.75;44.22;;;;;;;;;;6266302;28;20079;-63
2023/10/20 07:20:09;;;;;;;119.05;60.10;;;;;;;;;;6267235;28;20139;-63
2023/10/20 07:23:10;;;;;;;95.43;44.72;;;;;;;;;;6265292;28;20051;-63
2023/10/20 07:26:11;;;;;;;87.45;41.40;;;;;;;;;;6261500;28;20435;-64
2023/10/20 07:29:12;;;;;;;83.87;41.70;;;;;;;;;;6251215;28;20104;-63
2023/10/20 07:32:13;;;;;;;86.00;41.22;;;;;;;;;;6255967;28;20333;-63
2023/10/20 07:35:15;;;;;;;87.88;42.45;;;;;;;;;;6263637;28;20447;-63
2023/10/20 07:38:17;;;;;;;;;;;;;;;;;;6266050;28;20144;-63
2023/10/20 07:41:17;;;;;;;87.35;42.17;;;;;;;;;;6265753;28;19924;-67
2023/10/20 07:44:18;;;;;;;82.88;40.03;;;;;;;;;;6256646;28;20486;-63
2023/10/20 07:47:19;;;;;;;106.55;53.60;;;;;;;;;;6262755;28;20087;-63
2023/10/20 07:50:20;;;;;;;93.60;45.95;;;;;;;;;;6265261;28;20389;-63
2023/10/20 07:53:21;;;;;;;96.57;43.13;;;;;;;;;;6264958;28;20102;-63
2023/10/20 07:56:22;;;;;;;102.10;44.63;;;;;;;;;;6264192;28;20389;-64
2023/10/20 07:59:23;;;;;;;103.15;45.67;;;;;;;;;;6262432;28;20040;-62
2023/10/20 08:02:24;;;;;;;87.32;40.05;;;;;;;;;;6255559;28;20040;-63
2023/10/20 08:05:24;;;;;;;77.32;34.80;;;;;;;;;;6249947;28;20135;-62
2023/10/20 08:08:25;;;;;;;88.22;43.85;;;;;;;;;;6247631;28;20045;-63
2023/10/20 08:11:26;;;;;;;80.75;42.15;;;;;;;;;;6249001;28;20171;-63
2023/10/20 08:14:27;;;;;;;79.90;40.35;;;;;;;;;;6243540;28;20135;-63
2023/10/20 08:17:28;;;;;;;65.03;28.48;;;;;;;;;;6238126;28;20045;-63
2023/10/20 08:20:29;;;;;;;71.65;31.45;;;;;;;;;;6248344;28;20148;-63
2023/10/20 08:23:30;;;;;;;68.35;30.45;;;;;;;;;;6238977;28;20049;-63
2023/10/20 08:26:31;;;;;;;67.13;31.55;;;;;;;;;;6245483;28;20134;-63
2023/10/20 08:29:32;;;;;;;71.82;33.15;;;;;;;;;;6244231;28;20384;-64
2023/10/20 08:32:33;;;;;;;70.03;32.80;;;;;;;;;;6249147;28;20049;-63
2023/10/20 08:35:34;;;;;;;70.47;30.90;;;;;;;;;;6250434;28;20139;-63
2023/10/20 08:38:34;;;;;;;64.47;30.33;;;;;;;;;;6244905;28;20053;-64
2023/10/20 08:41:35;;;;;;;64.47;31.60;;;;;;;;;;6251520;28;20106;-63
2023/10/20 08:44:37;;;;;;;70.10;31.17;;;;;;;;;;6244201;28;20770;-64
2023/10/20 08:47:40;;;;;;;57.28;27.50;;;;;;;;;;6255526;28;20063;-63
2023/10/20 08:50:41;;;;;;;60.58;30.50;;;;;;;;;;6253768;28;20391;-63
2023/10/20 08:53:42;;;;;;;59.63;28.25;;;;;;;;;;6252492;28;20045;-63
2023/10/20 08:56:43;;;;;;;66.75;32.03;;;;;;;;;;6253974;28;20242;-63
2023/10/20 08:59:51;;;;;;;59.70;26.90;;;;;;;;;;6253540;28;20507;-63
2023/10/20 09:02:58;;;;;;;59.67;28.15;;;;;;;;;;6255980;28;20041;-63
2023/10/20 09:06:06;;;;;;;62.80;30.15;;;;;;;;;;6253057;28;20045;-63
2023/10/20 09:09:07;;;;;;;58.38;28.42;;;;;;;;;;6248537;28;20061;-63
2023/10/20 09:12:08;;;;;;;63.72;30.08;;;;;;;;;;6255934;28;20055;-63
2023/10/20 09:15:11;;;;;;;64.45;32.88;;;;;;;;;;6254611;28;20049;-63
2023/10/20 09:18:11;;;;;;;;;;;;;;;;;;6253568;28;20091;-63
2023/10/20 09:21:13;;;;;;;67.63;31.98;;;;;;;;;;6256617;28;19929;-63
2023/10/20 09:24:14;;;;;;;;;;;;;;;;;;6253068;28;20477;-63
2023/10/20 09:27:15;;;;;;;65.68;30.50;;;;;;;;;;6253704;28;19924;-64
2023/10/20 09:30:16;;;;;;;62.35;28.13;;;;;;;;;;6255629;28;20135;-64
2023/10/20 09:33:17;;;;;;;64.32;29.80;;;;;;;;;;6257577;28;20412;-63
2023/10/20 09:36:18;;;;;;;71.18;33.83;;;;;;;;;;6250093;28;20154;-63
2023/10/20 09:39:33;;;;;;;69.88;30.90;;;;;;;;;;6256000;28;20289;-63
2023/10/20 09:42:47;;;;;;;71.28;35.15;;;;;;;;;;6255493;28;20145;-63
2023/10/20 09:45:55;;;;;;;67.25;30.25;;;;;;;;;;6253809;28;20061;-64
2023/10/20 09:49:00;;;;;;;69.32;29.40;;;;;;;;;;6251032;28;20048;-64
2023/10/20 09:52:01;;;;;;;63.97;27.98;;;;;;;;;;6256009;28;20041;-63
2023/10/20 09:55:02;;;;;;;57.90;26.10;;;;;;;;;;6256152;28;20091;-64
2023/10/20 09:58:03;;;;;;;53.40;23.70;;;;;;;;;;6251087;28;20527;-64
2023/10/20 10:01:06;;;;;;;49.90;23.95;;;;;;;;;;6247395;28;20041;-63
2023/10/20 10:04:09;;;;;;;51.90;24.08;;;;;;;;;;6258817;28;20090;-61
2023/10/20 10:07:10;;;;;;;52.90;25.48;;;;;;;;;;6251101;28;20468;-63
2023/10/20 10:10:19;;;;;;;49.63;23.15;;;;;;;;;;6258061;28;20044;-63
2023/10/20 10:13:32;;;;;;;53.55;23.25;;;;;;;;;;6255911;28;20041;-62
2023/10/20 10:16:47;;;;;;;47.03;22.20;;;;;;;;;;6249079;28;20095;-62
2023/10/20 10:19:50;;;;;;;50.88;21.77;;;;;;;;;;6255077;28;20549;-63
2023/10/20 10:23:08;;;;;;;52.72;26.50;;;;;;;;;;6258525;28;20045;-63
2023/10/20 10:26:13;;;;;;;55.42;31.65;;;;;;;;;;6249268;28;20062;-63
2023/10/20 10:29:14;;;;;;;50.85;24.48;;;;;;;;;;6245809;28;20037;-63
2023/10/20 10:32:18;;;;;;;50.45;24.45;;;;;;;;;;6251141;28;20048;-63
2023/10/20 10:35:20;;;;;;;47.13;23.58;;;;;;;;;;6248113;28;20086;-63
2023/10/20 10:38:22;;;;;;;48.17;23.48;;;;;;;;;;6250345;28;20045;-63
2023/10/20 10:41:23;;;;;;;44.65;21.20;;;;;;;;;;6249800;28;20644;-63
2023/10/20 10:44:23;;;;;;;46.95;22.65;;;;;;;;;;6256135;28;20041;-63
2023/10/20 10:47:24;;;;;;;54.50;22.85;;;;;;;;;;6250718;28;20523;-63
2023/10/20 10:50:25;;;;;;;48.63;22.73;;;;;;;;;;6254727;28;20048;-63
2023/10/20 10:53:26;;;;;;;55.97;23.17;;;;;;;;;;6247827;28;20065;-63
2023/10/20 10:56:26;;;;;;;47.97;24.88;;;;;;;;;;6252368;28;20493;-63
2023/10/20 10:59:27;;;;;;;52.38;24.50;;;;;;;;;;6255411;28;20051;-63
2023/10/20 11:02:28;;;;;;;48.15;24.20;;;;;;;;;;6248483;28;20049;-63
2023/10/20 11:05:29;;;;;;;46.03;21.90;;;;;;;;;;6248368;28;20056;-63
2023/10/20 11:08:31;;;;;;;46.88;25.05;;;;;;;;;;6242480;28;20049;-63
2023/10/20 11:11:37;;;;;;;;;;;;;;;;;;6250455;28;20156;-63
2023/10/20 11:14:41;;;;;;;43.25;21.25;;;;;;;;;;6243795;28;19980;-62
2023/10/20 11:17:42;;;;;;;52.75;22.60;;;;;;;;;;6252123;28;20495;-62
2023/10/20 11:20:47;;;;;;;51.28;22.83;;;;;;;;;;6258590;28;20041;-63
2023/10/20 11:23:50;;;;;;;52.97;23.88;;;;;;;;;;6258011;28;20053;-63
2023/10/20 11:27:00;;;;;;;47.72;23.58;;;;;;;;;;6257465;28;20076;-63
2023/10/20 11:30:01;;;;;;;54.10;27.17;;;;;;;;;;6263218;28;20140;-63
2023/10/20 11:33:03;;;;;;;52.60;27.98;;;;;;;;;;6255112;28;20572;-63
2023/10/20 11:36:04;;;;;;;53.75;25.08;;;;;;;;;;6263066;28;20041;-64
2023/10/20 11:39:06;;;;;;;49.97;23.40;;;;;;;;;;6262841;28;20228;-65
2023/10/20 11:42:07;;;;;;;;;;;;;;;;;;6261830;28;20401;-65
2023/10/20 11:45:10;;;;;;;48.97;22.95;;;;;;;;;;6261679;28;19935;-64
2023/10/20 11:48:11;;;;;;;45.30;21.30;;;;;;;;;;6261700;28;20616;-64
2023/10/20 11:51:11;;;;;;;52.67;21.63;;;;;;;;;;6262620;28;20041;-63
2023/10/20 11:54:12;;;;;;;47.47;22.60;;;;;;;;;;6262866;28;20136;-66
2023/10/20 11:57:13;;;;;;;52.40;26.08;;;;;;;;;;6264038;28;20041;-65
2023/10/20 12:00:14;;;;;;;55.97;27.73;;;;;;;;;;6264072;28;20068;-65
2023/10/20 12:03:15;;;;;;;57.30;26.63;;;;;;;;;;6262058;28;20426;-65
2023/10/20 12:06:15;;;;;;;66.68;30.77;;;;;;;;;;6260626;28;20064;-64
2023/10/20 12:09:16;;;;;;;59.10;26.83;;;;;;;;;;6264497;28;20084;-65
2023/10/20 12:12:17;;;;;;;54.28;25.23;;;;;;;;;;6261789;28;20048;-66
2023/10/20 12:15:18;;;;;;;57.90;25.73;;;;;;;;;;6257683;28;20041;-66
2023/10/20 12:18:18;;;;;;;54.03;25.02;;;;;;;;;;6270525;28;20071;-65
2023/10/20 12:21:19;;;;;;;60.17;29.25;;;;;;;;;;6266497;28;20479;-66
2023/10/20 12:24:19;;;;;;;68.47;30.38;;;;;;;;;;6268718;28;20037;-66
2023/10/20 12:27:21;;;;;;;56.08;27.45;;;;;;;;;;6265302;28;20048;-65
2023/10/20 12:30:21;;;;;;;61.80;29.50;;;;;;;;;;6268674;28;20410;-67
2023/10/20 12:33:22;;;;;;;54.80;24.75;;;;;;;;;;6268471;28;20059;-65
2023/10/20 12:36:23;;;;;;;56.45;25.58;;;;;;;;;;6267978;28;20179;-67
2023/10/20 12:39:23;;;;;;;60.50;28.95;;;;;;;;;;6269091;28;20099;-68
2023/10/20 12:42:24;;;;;;;58.67;31.15;;;;;;;;;;6264230;28;20496;-65
2023/10/20 12:45:25;;;;;;;52.97;27.15;;;;;;;;;;6267587;28;20053;-65
2023/10/20 12:48:25;;;;;;;54.10;25.98;;;;;;;;;;6267996;28;20488;-64
2023/10/20 12:51:26;;;;;;;50.20;22.98;;;;;;;;;;6259145;28;20862;-63
2023/10/20 12:54:27;;;;;;;49.70;24.00;;;;;;;;;;6257381;28;20053;-62
2023/10/20 12:57:27;;;;;;;57.58;24.73;;;;;;;;;;6259157;28;20407;-62
2023/10/20 13:00:28;;;;;;;46.47;23.73;;;;;;;;;;6257843;28;20131;-64
2023/10/20 13:03:29;;;;;;;51.22;23.80;;;;;;;;;;6257291;28;20045;-64
2023/10/20 13:06:30;;;;;;;47.13;22.37;;;;;;;;;;6257481;28;20052;-63
2023/10/20 13:09:30;;;;;;;46.55;21.08;;;;;;;;;;6260019;28;20850;-64
2023/10/20 13:12:31;;;;;;;45.72;23.15;;;;;;;;;;6258358;28;20056;-64
2023/10/20 13:15:32;;;;;;;46.70;21.80;;;;;;;;;;6256304;28;20056;-64
2023/10/20 13:18:33;;;;;;;45.88;21.33;;;;;;;;;;6258719;28;20083;-64
2023/10/20 13:21:33;;;;;;;44.60;21.77;;;;;;;;;;6256630;28;20052;-64
2023/10/20 13:24:34;;;;;;;46.42;21.45;;;;;;;;;;6258012;28;20115;-64
2023/10/20 13:27:35;;;;;;;44.45;20.80;;;;;;;;;;6259357;28;20049;-64
2023/10/20 13:30:37;;;;;;;47.03;19.97;;;;;;;;;;6256182;28;20479;-65
2023/10/20 13:33:38;;;;;;;47.30;21.88;;;;;;;;;;6255716;28;20106;-64
2023/10/20 13:36:38;;;;;;;48.03;23.23;;;;;;;;;;6258526;28;20057;-63
2023/10/20 13:39:39;;;;;;;45.00;24.35;;;;;;;;;;6241838;28;20573;-66
2023/10/20 13:42:40;;;;;;;63.03;27.95;;;;;;;;;;6256927;28;20507;-64
2023/10/20 13:45:40;;;;;;;60.28;27.20;;;;;;;;;;6256155;28;20087;-64
2023/10/20 13:48:42;;;;;;;54.42;27.95;;;;;;;;;;6258805;28;20140;-64
2023/10/20 13:51:43;;;;;;;53.17;26.03;;;;;;;;;;6255030;28;20052;-66
2023/10/20 13:54:43;;;;;;;50.70;24.27;;;;;;;;;;6253489;28;20286;-64
2023/10/20 13:57:45;;;;;;;51.35;24.83;;;;;;;;;;6255957;28;20966;-64
2023/10/20 14:00:46;;;;;;;59.20;26.73;;;;;;;;;;6257907;28;20059;-64
2023/10/20 14:03:46;;;;;;;49.80;23.67;;;;;;;;;;6251206;28;20037;-65
2023/10/20 14:06:47;;;;;;;52.05;23.48;;;;;;;;;;6264752;28;20072;-64
2023/10/20 14:09:47;;;;;;;55.83;23.50;;;;;;;;;;6244799;28;20049;-64
2023/10/20 14:12:48;;;;;;;61.13;28.35;;;;;;;;;;6240772;28;20053;-64
2023/10/20 14:15:49;;;;;;;53.10;24.17;;;;;;;;;;6242801;28;20046;-64
2023/10/20 14:18:50;;;;;;;49.95;22.88;;;;;;;;;;6242767;28;20593;-64
2023/10/20 14:21:50;;;;;;;52.75;22.35;;;;;;;;;;6242666;28;20053;-63
2023/10/20 14:24:51;;;;;;;48.67;22.58;;;;;;;;;;6242077;28;20057;-64
2023/10/20 14:27:51;;;;;;;47.47;21.92;;;;;;;;;;6244438;28;20041;-64
2023/10/20 14:30:55;;;;;;;43.60;20.17;;;;;;;;;;6243852;28;20507;-65
2023/10/20 14:33:58;;;;;;;54.70;23.38;;;;;;;;;;6242464;28;20042;-64
2023/10/20 14:36:59;;;;;;;48.60;20.70;;;;;;;;;;6243086;28;20060;-64
2023/10/20 14:39:59;;;;;;;54.60;21.80;;;;;;;;;;6244694;28;20045;-64
2023/10/20 14:43:00;;;;;;;52.58;21.95;;;;;;;;;;6244453;28;20117;-64
2023/10/20 14:46:02;;;;;;;49.75;23.73;;;;;;;;;;6243531;28;20051;-64
2023/10/20 14:49:03;;;;;;;51.95;23.40;;;;;;;;;;6242554;28;20041;-64
2023/10/20 14:52:04;;;;;;;47.08;21.77;;;;;;;;;;6242484;28;20060;-64
2023/10/20 14:55:05;;;;;;;52.88;23.30;;;;;;;;;;6242404;28;20471;-64
2023/10/20 14:58:05;;;;;;;54.17;22.45;;;;;;;;;;6242872;28;20079;-64
2023/10/20 15:01:06;;;;;;;48.25;22.13;;;;;;;;;;6242365;28;20464;-64
2023/10/20 15:04:07;;;;;;;58.00;24.05;;;;;;;;;;6239637;28;20050;-65
2023/10/20 15:07:08;;;;;;;55.40;23.85;;;;;;;;;;6239871;28;20060;-64
2023/10/20 15:10:10;;;;;;;62.47;31.33;;;;;;;;;;6242367;28;20052;-64
2023/10/20 15:13:11;;;;;;;54.20;25.58;;;;;;;;;;6242789;28;20136;-64
2023/10/20 15:16:15;;;;;;;55.63;23.92;;;;;;;;;;6241794;28;20540;-64
2023/10/20 15:19:15;;;;;;;57.65;24.50;;;;;;;;;;6260877;28;20132;-64
2023/10/20 15:22:16;;;;;;;54.95;25.70;;;;;;;;;;6241756;28;20477;-64
2023/10/20 15:25:17;;;;;;;63.00;31.08;;;;;;;;;;6240427;28;20416;-64
2023/10/20 15:28:18;;;;;;;51.17;25.42;;;;;;;;;;6242478;28;20052;-64
2023/10/20 15:31:19;;;;;;;52.72;23.77;;;;;;;;;;6242870;28;20446;-64
2023/10/20 15:34:19;;;;;;;52.72;25.27;;;;;;;;;;6240764;28;20407;-64
2023/10/20 15:37:22;;;;;;;53.55;24.20;;;;;;;;;;6241529;28;20471;-64
2023/10/20 15:40:24;;;;;;;51.95;23.33;;;;;;;;;;6241804;28;20042;-65
2023/10/20 15:43:26;;;;;;;57.33;29.30;;;;;;;;;;6204436;28;1080086;-64
2023/10/20 15:46:27;;;;;;;53.33;25.25;;;;;;;;;;6242039;28;20045;-65
2023/10/20 15:49:28;;;;;;;51.55;23.70;;;;;;;;;;6241588;28;20068;-65
2023/10/20 15:52:29;;;;;;;57.20;26.35;;;;;;;;;;6240094;28;20485;-64
2023/10/20 15:55:41;;;;;;;64.90;28.00;;;;;;;;;;6241826;28;20045;-64
2023/10/20 15:58:42;;;;;;;;;;;;;;;;;;6243330;28;20577;-64
2023/10/20 16:01:43;;;;;;;72.20;36.50;;;;;;;;;;6239638;28;20383;-65
2023/10/20 16:04:44;;;;;;;63.55;27.77;;;;;;;;;;6240722;28;20051;-64
2023/10/20 16:07:45;;;;;;;62.83;28.77;;;;;;;;;;6242343;28;20053;-64
2023/10/20 16:10:45;;;;;;;61.85;27.00;;;;;;;;;;6242559;28;20046;-63
2023/10/20 16:13:46;;;;;;;68.73;28.47;;;;;;;;;;6242775;28;20055;-64
2023/10/20 16:16:48;;;;;;;71.75;33.05;;;;;;;;;;6241420;28;20045;-64
2023/10/20 16:19:49;;;;;;;;;;;;;;;;;;6241633;28;20045;-64
2023/10/20 16:22:49;;;;;;;66.70;30.45;;;;;;;;;;6241846;28;21245;-64
2023/10/20 16:25:50;;;;;;;57.40;27.08;;;;;;;;;;6241109;28;20480;-64
2023/10/20 16:28:50;;;;;;;57.97;26.80;;;;;;;;;;6248273;28;20041;-64
2023/10/20 16:31:51;;;;;;;63.50;26.88;;;;;;;;;;6249305;28;20516;-65
2023/10/20 16:34:51;;;;;;;63.17;28.95;;;;;;;;;;6250852;28;20041;-64
2023/10/20 16:37:52;;;;;;;68.40;28.50;;;;;;;;;;6251010;28;20098;-63
2023/10/20 16:40:57;;;;;;;62.97;28.38;;;;;;;;;;6251260;28;20057;-63
2023/10/20 16:43:58;;;;;;;73.75;34.78;;;;;;;;;;6252546;28;20587;-63
2023/10/20 16:46:58;;;;;;;71.95;34.85;;;;;;;;;;6251992;28;20057;-62
2023/10/20 16:49:59;;;;;;;71.03;30.08;;;;;;;;;;6250190;28;20045;-65
2023/10/20 16:53:00;;;;;;;65.07;29.00;;;;;;;;;;6251933;28;20574;-63
2023/10/20 16:56:00;;;;;;;68.05;29.35;;;;;;;;;;6250866;28;20048;-63
2023/10/20 16:59:01;;;;;;;61.17;28.55;;;;;;;;;;6250036;28;20071;-65
2023/10/20 17:02:02;;;;;;;81.40;29.17;;;;;;;;;;6255512;28;20130;-62
2023/10/20 17:05:02;;;;;;;69.38;31.33;;;;;;;;;;6256226;28;20049;-64
2023/10/20 17:08:03;;;;;;;80.95;44.28;;;;;;;;;;6256030;28;20044;-65
2023/10/20 17:11:04;;;;;;;62.80;29.63;;;;;;;;;;6257510;28;20641;-65
2023/10/20 17:14:05;;;;;;;69.55;29.83;;;;;;;;;;6257744;28;20049;-64
2023/10/20 17:17:05;;;;;;;63.90;29.08;;;;;;;;;;6255485;28;20370;-64
2023/10/20 17:20:06;;;;;;;61.97;29.98;;;;;;;;;;6257706;28;20087;-64
2023/10/20 17:23:12;;;;;;;63.15;29.90;;;;;;;;;;6255256;28;20041;-65
2023/10/20 17:26:13;;;;;;;59.47;25.33;;;;;;;;;;6254089;28;20421;-65
2023/10/20 17:29:13;;;;;;;72.72;26.52;;;;;;;;;;6257627;28;20048;-65
2023/10/20 17:32:15;;;;;;;64.35;27.90;;;;;;;;;;6255838;28;20552;-64
2023/10/20 17:35:18;;;;;;;65.57;28.73;;;;;;;;;;6255294;28;20152;-64
2023/10/20 17:38:19;;;;;;;88.90;54.05;;;;;;;;;;6237587;28;20059;-62
2023/10/20 17:41:20;;;;;;;72.13;29.57;;;;;;;;;;6256046;28;20438;-64
2023/10/20 17:44:20;;;;;;;61.22;31.52;;;;;;;;;;6253656;28;20049;-64
2023/10/20 17:47:21;;;;;;;82.40;36.33;;;;;;;;;;6234186;28;20052;-64
2023/10/20 17:50:22;;;;;;;69.43;29.27;;;;;;;;;;6256769;28;20159;-64
2023/10/20 17:53:22;;;;;;;72.90;30.23;;;;;;;;;;6256172;28;20045;-63
2023/10/20 17:56:23;;;;;;;73.07;30.13;;;;;;;;;;6252961;28;20045;-64
2023/10/20 17:59:23;;;;;;;71.35;28.90;;;;;;;;;;6257284;28;20056;-64
2023/10/20 18:02:25;;;;;;;78.20;31.45;;;;;;;;;;6256333;28;20064;-63